createdAt,value
2022-09-16T00:05:32.362Z,12.06
2022-09-16T00:21:15.239Z,11.86
2022-09-16T00:36:57.908Z,11.7
2022-09-16T00:52:40.070Z,11.55
2022-09-16T01:08:22.847Z,11.39
2022-09-16T01:24:05.872Z,11.24
2022-09-16T01:39:48.846Z,11.1
2022-09-16T01:55:31.830Z,10.96
2022-09-16T02:11:14.847Z,10.79
2022-09-16T02:26:56.917Z,10.8
2022-09-16T02:42:39.773Z,10.86
2022-09-16T02:58:22.572Z,10.91
2022-09-16T03:14:05.468Z,10.95
2022-09-16T03:29:47.725Z,10.9
2022-09-16T03:45:29.869Z,10.82
2022-09-16T04:01:12.799Z,10.77
2022-09-16T04:16:54.922Z,10.72
2022-09-16T04:32:37.141Z,10.64
2022-09-16T04:48:20.199Z,10.55
2022-09-16T05:04:02.365Z,10.55
2022-09-16T05:19:44.821Z,10.59
2022-09-16T05:35:27.850Z,10.57
2022-09-16T05:51:10.230Z,10.71
2022-09-16T06:06:53.239Z,11
2022-09-16T06:22:35.583Z,11.23
2022-09-16T06:38:18.241Z,11.6
2022-09-16T06:54:00.351Z,12.07
2022-09-16T07:09:42.993Z,12.46
2022-09-16T07:25:25.991Z,13.22
2022-09-16T07:41:08.852Z,13.37
2022-09-16T07:56:51.394Z,13.8
2022-09-16T08:12:34.203Z,14.29
2022-09-16T08:28:16.643Z,14.52
2022-09-16T08:43:58.806Z,15.1
2022-09-16T08:59:41.776Z,15.55
2022-09-16T09:15:24.321Z,15.74
2022-09-16T09:31:07.087Z,15.92
2022-09-16T09:31:54.409Z,16.16
2022-09-16T09:47:36.535Z,16.5
2022-09-16T10:03:18.787Z,19.31
2022-09-16T10:19:01.129Z,17.39
2022-09-16T10:34:44.094Z,18.53
2022-09-16T10:50:27.057Z,18.49
2022-09-16T11:06:09.808Z,18.35
2022-09-16T11:21:51.910Z,19.15
2022-09-16T11:37:34.578Z,19.83
2022-09-16T11:53:17.502Z,22.25
2022-09-16T12:08:59.515Z,21.54
2022-09-16T12:24:41.806Z,23.6
2022-09-16T12:40:24.537Z,21.24
2022-09-16T12:56:06.569Z,20.03
2022-09-16T13:11:49.289Z,18.83
2022-09-16T13:27:31.726Z,19.14
2022-09-16T13:43:14.034Z,21.36
2022-09-16T13:58:56.352Z,18.84
2022-09-16T14:14:38.618Z,19.18
2022-09-16T14:30:21.188Z,21.08
2022-09-16T14:46:03.668Z,22.64
2022-09-16T15:01:46.057Z,22.63
2022-09-16T15:17:29.078Z,20.46
2022-09-16T15:33:11.152Z,19.25
2022-09-16T15:48:53.992Z,18.46
2022-09-16T16:04:36.420Z,17.75
2022-09-16T16:20:18.810Z,17.33
2022-09-16T16:36:01.734Z,16.75
2022-09-16T16:51:44.617Z,16.43
2022-09-16T17:07:27.479Z,16.18
2022-09-16T17:23:09.913Z,15.67
2022-09-16T17:38:52.848Z,15.16
2022-09-16T18:10:17.828Z,14.22
2022-09-16T18:26:00.383Z,13.83
2022-09-16T18:41:43.303Z,13.56
2022-09-16T18:57:25.683Z,13.33
2022-09-16T19:13:08.830Z,13.28
2022-09-16T19:28:51.790Z,13.34
2022-09-16T19:44:34.363Z,13.44
2022-09-16T20:00:17.030Z,13.13
2022-09-16T20:15:59.544Z,12.01
2022-09-16T20:31:41.939Z,11.03
2022-09-16T20:47:24.385Z,10.52
2022-09-16T21:03:06.587Z,10.33
2022-09-16T21:18:49.554Z,10.21
2022-09-16T21:34:31.883Z,10.12
2022-09-16T21:50:15.036Z,10.14
2022-09-16T22:05:57.938Z,10.2
2022-09-16T22:21:40.858Z,10.25
2022-09-16T22:37:23.287Z,10.35
2022-09-16T22:53:05.662Z,10.46
2022-09-16T23:08:48.226Z,10.49
2022-09-16T23:24:30.514Z,10.59
2022-09-16T23:40:13.233Z,10.61
2022-09-16T23:55:56.153Z,10.66
